createdAt,value
2023-03-16T00:02:06.307Z,69.16
2023-03-16T00:04:37.268Z,68.90
2023-03-16T00:07:09.508Z,69.29
2023-03-16T00:09:40.809Z,68.81
2023-03-16T00:12:16.190Z,69.68
2023-03-16T00:14:44.884Z,69.25
2023-03-16T00:17:22.179Z,69.69
2023-03-16T00:19:54.662Z,69.22
2023-03-16T00:22:23.260Z,69.04
2023-03-16T00:24:49.648Z,69.32
2023-03-16T00:27:16.347Z,69.35
2023-03-16T00:29:46.968Z,69.21
2023-03-16T00:32:21.559Z,69.50
2023-03-16T00:34:48.264Z,69.15
2023-03-16T00:37:17.232Z,68.78
2023-03-16T00:39:45.789Z,68.43
2023-03-16T00:42:16.336Z,67.81
2023-03-16T00:44:43.465Z,67.81
2023-03-16T00:47:14.077Z,67.46
2023-03-16T00:49:42.686Z,67.60
2023-03-16T00:52:14.509Z,67.19
2023-03-16T00:54:43.110Z,67.40
2023-03-16T00:57:11.977Z,67.30
2023-03-16T00:59:38.647Z,67.43
2023-03-16T01:02:07.401Z,67.16
2023-03-16T01:04:35.932Z,66.95
2023-03-16T01:07:07.146Z,66.72
2023-03-16T01:09:36.945Z,66.75
2023-03-16T01:12:15.735Z,66.91
2023-03-16T01:14:45.733Z,67.15
2023-03-16T01:17:13.862Z,67.46
2023-03-16T01:19:41.365Z,67.22
2023-03-16T01:22:09.681Z,67.08
2023-03-16T01:24:36.532Z,66.72
2023-03-16T01:27:04.335Z,67.03
2023-03-16T01:29:31.627Z,67.07
2023-03-16T01:31:58.882Z,66.91
2023-03-16T01:34:25.341Z,66.62
2023-03-16T01:36:52.179Z,67.32
2023-03-16T01:39:28.455Z,66.42
2023-03-16T01:41:54.863Z,67.13
2023-03-16T01:44:30.170Z,66.16
2023-03-16T01:47:00.121Z,66.61
2023-03-16T01:49:33.823Z,67.03
2023-03-16T01:52:15.450Z,66.65
2023-03-16T01:54:50.475Z,66.78
2023-03-16T01:57:21.885Z,66.56
2023-03-16T01:59:57.782Z,66.24
2023-03-16T02:02:29.747Z,65.76
2023-03-16T02:05:08.244Z,65.69
2023-03-16T02:07:42.281Z,65.50
2023-03-16T02:10:10.650Z,66.11
2023-03-16T02:12:37.670Z,65.41
2023-03-16T02:15:05.746Z,65.90
2023-03-16T02:17:34.546Z,65.94
2023-03-16T02:20:22.804Z,65.54
2023-03-16T02:22:54.062Z,65.11
2023-03-16T02:25:51.900Z,65.19
2023-03-16T02:28:36.938Z,65.42
2023-03-16T02:31:05.703Z,65.51
2023-03-16T02:33:33.821Z,65.48
2023-03-16T02:36:00.399Z,65.14
2023-03-16T02:38:27.924Z,64.77
2023-03-16T02:40:59.567Z,65.02
2023-03-16T02:43:33.110Z,65.22
2023-03-16T02:46:09.702Z,64.80
2023-03-16T02:48:45.543Z,65.02
2023-03-16T02:51:12.093Z,64.58
2023-03-16T02:53:38.467Z,65.06
2023-03-16T02:56:05.426Z,64.58
2023-03-16T02:58:34.665Z,64.88
2023-03-16T03:01:04.626Z,64.00
2023-03-16T03:03:34.454Z,63.99
2023-03-16T03:06:01.878Z,64.77
2023-03-16T03:08:33.234Z,64.21
2023-03-16T03:11:00.114Z,64.75
2023-03-16T03:13:26.528Z,64.00
2023-03-16T03:15:53.030Z,64.69
2023-03-16T03:18:22.290Z,64.25
2023-03-16T03:20:48.669Z,64.67
2023-03-16T03:23:16.965Z,64.81
2023-03-16T03:25:43.419Z,64.86
2023-03-16T03:28:11.336Z,65.00
2023-03-16T03:30:37.820Z,64.98
2023-03-16T03:33:04.573Z,64.99
2023-03-16T03:35:31.626Z,65.97
2023-03-16T03:37:58.014Z,65.35
2023-03-16T03:40:26.221Z,65.12
2023-03-16T03:42:58.368Z,65.20
2023-03-16T03:45:25.134Z,64.76
2023-03-16T03:47:51.504Z,65.30
2023-03-16T03:50:20.982Z,64.90
2023-03-16T03:53:10.528Z,64.96
2023-03-16T03:55:56.720Z,64.82
2023-03-16T03:58:23.223Z,65.08
2023-03-16T04:00:49.546Z,65.46
2023-03-16T04:03:17.467Z,64.45
2023-03-16T04:05:45.045Z,64.56
2023-03-16T04:08:12.293Z,64.79
2023-03-16T04:10:39.140Z,64.60
2023-03-16T04:13:05.641Z,64.72
2023-03-16T04:15:34.045Z,64.34
2023-03-16T04:18:09.931Z,64.46
2023-03-16T04:20:36.989Z,63.83
2023-03-16T04:23:04.897Z,64.42
2023-03-16T04:25:31.752Z,63.22
2023-03-16T04:27:58.898Z,64.02
2023-03-16T04:30:30.815Z,64.22
2023-03-16T04:33:06.363Z,63.98
2023-03-16T04:35:32.792Z,64.19
2023-03-16T04:37:59.160Z,64.21
2023-03-16T04:40:34.517Z,64.27
2023-03-16T04:43:07.706Z,64.18
2023-03-16T04:45:34.785Z,64.51
2023-03-16T04:48:01.290Z,64.11
2023-03-16T04:50:28.013Z,64.52
2023-03-16T04:52:55.042Z,64.16
2023-03-16T04:55:22.793Z,64.80
2023-03-16T04:57:49.932Z,64.19
2023-03-16T05:00:19.798Z,64.72
2023-03-16T05:02:54.318Z,64.49
2023-03-16T05:05:21.548Z,64.77
2023-03-16T05:07:48.223Z,64.40
2023-03-16T05:10:18.670Z,64.68
2023-03-16T05:12:45.367Z,64.64
2023-03-16T05:15:13.790Z,64.70
2023-03-16T05:17:42.084Z,63.50
2023-03-16T05:20:15.439Z,63.85
2023-03-16T05:22:48.022Z,63.90
2023-03-16T05:25:20.757Z,64.21
2023-03-16T05:27:53.785Z,63.02
2023-03-16T05:30:28.259Z,63.52
2023-03-16T05:32:58.134Z,63.37
2023-03-16T05:35:25.603Z,63.08
2023-03-16T05:37:55.559Z,63.09
2023-03-16T05:40:22.754Z,63.75
2023-03-16T05:43:00.162Z,63.69
2023-03-16T05:45:28.133Z,62.81
2023-03-16T05:48:02.564Z,62.97
2023-03-16T05:50:29.795Z,62.87
2023-03-16T05:52:56.498Z,63.09
2023-03-16T05:55:23.877Z,64.01
2023-03-16T05:57:55.702Z,63.66
2023-03-16T06:00:23.003Z,63.23
2023-03-16T06:02:58.891Z,63.06
2023-03-16T06:05:30.272Z,62.12
2023-03-16T06:07:56.783Z,63.50
2023-03-16T06:10:26.429Z,63.12
2023-03-16T06:12:53.193Z,63.21
2023-03-16T06:15:24.762Z,62.83
2023-03-16T06:17:51.970Z,63.05
2023-03-16T06:20:18.881Z,62.55
2023-03-16T06:22:45.376Z,61.84
2023-03-16T06:25:13.822Z,61.74
2023-03-16T06:27:42.523Z,61.49
2023-03-16T06:30:13.489Z,62.13
2023-03-16T06:32:42.098Z,61.64
2023-03-16T06:35:09.679Z,61.42
2023-03-16T06:37:39.088Z,61.16
2023-03-16T06:40:19.808Z,61.21
2023-03-16T06:42:47.349Z,61.06
2023-03-16T06:45:18.193Z,61.19
2023-03-16T06:47:44.685Z,61.38
2023-03-16T06:50:11.852Z,60.98
2023-03-16T06:52:39.791Z,60.71
2023-03-16T06:55:06.650Z,61.08
2023-03-16T06:57:35.714Z,60.38
2023-03-16T07:00:04.098Z,60.65
2023-03-16T07:02:30.487Z,59.98
2023-03-16T07:04:56.912Z,59.77
2023-03-16T07:07:24.402Z,59.59
2023-03-16T07:09:51.610Z,59.25
2023-03-16T07:12:18.556Z,59.91
2023-03-16T07:14:44.965Z,59.12
2023-03-16T07:17:13.662Z,59.39
2023-03-16T07:19:40.107Z,59.22
2023-03-16T07:22:06.463Z,58.98
2023-03-16T07:24:36.847Z,58.38
2023-03-16T07:27:03.453Z,58.21
2023-03-16T07:29:31.424Z,58.41
2023-03-16T07:31:57.847Z,57.49
2023-03-16T07:34:31.435Z,58.20
2023-03-16T07:36:58.804Z,57.41
2023-03-16T07:39:28.586Z,57.58
2023-03-16T07:42:01.460Z,58.05
2023-03-16T07:44:46.392Z,57.10
2023-03-16T07:47:13.475Z,57.49
2023-03-16T07:49:41.692Z,57.53
2023-03-16T07:52:08.646Z,56.28
2023-03-16T07:54:40.641Z,56.24
2023-03-16T07:57:08.287Z,56.97
2023-03-16T07:59:39.236Z,56.62
2023-03-16T08:02:16.790Z,55.78
2023-03-16T08:04:44.499Z,56.28
2023-03-16T08:07:14.213Z,55.52
2023-03-16T08:09:51.331Z,54.98
2023-03-16T08:12:22.831Z,55.38
2023-03-16T08:14:49.597Z,55.18
2023-03-16T08:17:20.267Z,55.51
2023-03-16T08:19:47.415Z,55.27
2023-03-16T08:22:14.617Z,55.18
2023-03-16T08:24:44.626Z,55.07
2023-03-16T08:27:13.178Z,54.60
2023-03-16T08:29:43.132Z,54.65
2023-03-16T08:32:13.613Z,54.37
2023-03-16T08:34:43.153Z,55.26
2023-03-16T08:37:10.386Z,56.29
2023-03-16T08:39:36.768Z,55.76
2023-03-16T08:42:08.388Z,55.95
2023-03-16T08:44:41.405Z,55.11
2023-03-16T08:47:07.970Z,55.08
2023-03-16T08:49:35.389Z,54.71
2023-03-16T08:52:10.303Z,55.00
2023-03-16T08:54:37.165Z,54.65
2023-03-16T08:57:04.243Z,54.72
2023-03-16T08:59:31.161Z,55.20
2023-03-16T09:01:57.703Z,55.62
2023-03-16T09:04:24.338Z,55.44
2023-03-16T09:07:05.855Z,55.69
2023-03-16T09:09:35.484Z,55.49
2023-03-16T09:12:02.396Z,55.99
2023-03-16T09:14:29.016Z,55.79
2023-03-16T09:16:56.398Z,56.46
2023-03-16T09:19:22.844Z,55.34
2023-03-16T09:21:49.190Z,55.73
2023-03-16T09:24:15.543Z,54.84
2023-03-16T09:26:42.604Z,56.20
2023-03-16T09:29:09.247Z,56.34
2023-03-16T09:31:36.177Z,55.87
2023-03-16T09:34:02.773Z,55.26
2023-03-16T09:36:29.142Z,55.26
2023-03-16T09:38:56.172Z,54.45
2023-03-16T09:41:35.660Z,55.98
2023-03-16T09:44:14.197Z,53.54
2023-03-16T09:46:45.344Z,54.91
2023-03-16T09:49:16.280Z,54.26
2023-03-16T09:51:52.258Z,53.72
2023-03-16T09:54:50.536Z,53.32
2023-03-16T09:57:28.404Z,54.78
2023-03-16T10:00:02.803Z,55.13
2023-03-16T10:02:44.877Z,54.57
2023-03-16T10:05:17.202Z,54.82
2023-03-16T10:08:06.875Z,54.55
2023-03-16T10:10:55.411Z,55.33
2023-03-16T10:13:38.413Z,55.50
2023-03-16T10:16:11.060Z,55.93
2023-03-16T10:18:46.879Z,56.27
2023-03-16T10:21:16.843Z,54.96
2023-03-16T10:23:44.753Z,55.36
2023-03-16T10:26:15.581Z,55.26
2023-03-16T10:28:43.442Z,54.68
2023-03-16T10:31:11.811Z,55.15
2023-03-16T10:33:39.544Z,54.51
2023-03-16T10:36:24.226Z,55.88
2023-03-16T10:38:55.191Z,56.02
2023-03-16T10:41:26.957Z,55.22
2023-03-16T10:43:57.138Z,55.60
2023-03-16T10:46:28.847Z,56.28
2023-03-16T10:49:01.094Z,57.54
2023-03-16T10:51:30.945Z,58.21
2023-03-16T10:54:14.117Z,55.60
2023-03-16T10:56:40.559Z,56.22
2023-03-16T10:59:25.882Z,55.71
2023-03-16T11:01:52.273Z,55.83
2023-03-16T11:04:19.282Z,55.78
2023-03-16T11:06:56.101Z,56.56
2023-03-16T11:09:27.691Z,56.82
2023-03-16T11:11:54.575Z,55.50
2023-03-16T11:14:26.174Z,54.63
2023-03-16T11:17:10.634Z,54.41
2023-03-16T11:19:46.051Z,53.91
2023-03-16T11:22:14.850Z,54.04
2023-03-16T11:25:01.743Z,54.31
2023-03-16T11:27:54.289Z,52.27
2023-03-16T11:30:29.108Z,51.53
2023-03-16T11:32:55.726Z,51.69
2023-03-16T11:35:59.310Z,52.20
2023-03-16T11:38:44.878Z,52.13
2023-03-16T11:41:18.365Z,50.93
2023-03-16T11:43:52.849Z,50.48
2023-03-16T11:46:24.970Z,49.95
2023-03-16T11:49:19.099Z,48.06
2023-03-16T11:51:56.613Z,48.13
2023-03-16T11:54:52.998Z,48.23
2023-03-16T11:57:53.477Z,47.41
2023-03-16T12:00:40.278Z,47.19
2023-03-16T12:03:25.757Z,47.78
2023-03-16T12:06:46.919Z,45.34
2023-03-16T12:09:20.063Z,45.54
2023-03-16T12:11:57.619Z,43.85
2023-03-16T12:14:30.159Z,43.80
2023-03-16T12:17:05.637Z,44.06
2023-03-16T12:19:45.446Z,43.59
2023-03-16T12:22:21.433Z,44.79
2023-03-16T12:24:48.613Z,44.52
2023-03-16T12:27:20.273Z,45.52
2023-03-16T12:30:05.414Z,43.54
2023-03-16T12:32:42.008Z,43.69
2023-03-16T12:35:22.697Z,45.34
2023-03-16T12:38:13.824Z,44.79
2023-03-16T12:40:54.964Z,44.42
2023-03-16T12:43:48.727Z,43.68
2023-03-16T12:46:30.262Z,43.33
2023-03-16T12:49:01.087Z,43.57
2023-03-16T12:51:44.012Z,43.43
2023-03-16T12:54:25.196Z,43.52
2023-03-16T12:56:54.129Z,44.91
2023-03-16T12:59:22.992Z,43.81
2023-03-16T13:01:58.487Z,44.12
2023-03-16T13:04:34.841Z,43.71
2023-03-16T13:07:06.003Z,43.84
2023-03-16T13:09:41.992Z,43.48
2023-03-16T13:12:10.153Z,43.45
2023-03-16T13:14:38.050Z,44.56
2023-03-16T13:17:21.648Z,43.21
2023-03-16T13:20:29.796Z,44.92
2023-03-16T13:23:18.650Z,43.60
2023-03-16T13:26:05.974Z,42.94
2023-03-16T13:28:36.518Z,43.29
2023-03-16T13:31:04.649Z,42.23
2023-03-16T13:33:36.616Z,42.12
2023-03-16T13:36:06.133Z,42.04
2023-03-16T13:38:32.573Z,41.39
2023-03-16T13:41:04.590Z,42.85
2023-03-16T13:43:32.933Z,42.39
2023-03-16T13:45:59.421Z,40.88
2023-03-16T13:48:25.870Z,41.47
2023-03-16T13:50:54.650Z,42.00
2023-03-16T13:53:28.855Z,40.90
2023-03-16T13:55:57.060Z,40.93
2023-03-16T13:58:31.877Z,41.18
2023-03-16T14:01:01.674Z,41.69
2023-03-16T14:03:36.997Z,41.64
2023-03-16T14:06:04.887Z,41.54
2023-03-16T14:08:32.391Z,41.12
2023-03-16T14:11:01.222Z,43.55
2023-03-16T14:13:27.915Z,42.28
2023-03-16T14:15:57.038Z,41.29
2023-03-16T14:18:31.983Z,41.46
2023-03-16T14:20:58.355Z,42.42
2023-03-16T14:23:31.050Z,43.21
2023-03-16T14:25:57.611Z,42.99
2023-03-16T14:28:32.374Z,43.78
2023-03-16T14:31:04.369Z,43.07
2023-03-16T14:33:33.866Z,44.38
2023-03-16T14:36:09.826Z,43.51
2023-03-16T14:38:44.614Z,44.60
2023-03-16T14:41:23.498Z,43.53
2023-03-16T14:44:01.447Z,44.26
2023-03-16T14:46:33.010Z,44.48
2023-03-16T14:49:20.190Z,44.30
2023-03-16T14:51:48.302Z,44.26
2023-03-16T14:54:17.099Z,44.56
2023-03-16T14:56:48.238Z,44.67
2023-03-16T14:59:14.608Z,44.18
2023-03-16T15:01:41.097Z,43.56
2023-03-16T15:04:07.755Z,44.51
2023-03-16T15:06:34.925Z,44.99
2023-03-16T15:09:01.856Z,44.84
2023-03-16T15:11:29.511Z,44.33
2023-03-16T15:14:14.155Z,44.90
2023-03-16T15:16:42.333Z,43.99
2023-03-16T15:19:09.808Z,43.08
2023-03-16T15:21:36.306Z,43.38
2023-03-16T15:24:02.857Z,44.11
2023-03-16T15:26:29.681Z,43.09
2023-03-16T15:28:57.169Z,43.41
2023-03-16T15:31:24.393Z,42.75
2023-03-16T15:33:50.903Z,44.18
2023-03-16T15:36:22.402Z,43.35
2023-03-16T15:38:51.293Z,43.59
2023-03-16T15:41:17.718Z,43.12
2023-03-16T15:43:48.396Z,43.14
2023-03-16T15:46:14.898Z,44.34
2023-03-16T15:48:41.391Z,43.62
2023-03-16T15:51:14.604Z,44.26
2023-03-16T15:53:50.159Z,44.37
2023-03-16T15:56:21.935Z,44.44
2023-03-16T15:58:49.068Z,44.26
2023-03-16T16:01:24.050Z,43.15
2023-03-16T16:03:51.565Z,44.26
2023-03-16T16:06:18.157Z,43.82
2023-03-16T16:08:44.597Z,44.72
2023-03-16T16:11:28.050Z,44.66
2023-03-16T16:13:56.814Z,43.41
2023-03-16T16:16:25.710Z,43.09
2023-03-16T16:18:52.220Z,42.54
2023-03-16T16:21:23.084Z,42.46
2023-03-16T16:23:51.371Z,42.71
2023-03-16T16:26:49.086Z,42.97
2023-03-16T16:29:22.032Z,44.11
2023-03-16T16:31:48.619Z,43.34
2023-03-16T16:34:17.973Z,43.68
2023-03-16T16:36:44.867Z,43.75
2023-03-16T16:39:12.512Z,44.06
2023-03-16T16:41:39.842Z,43.67
2023-03-16T16:44:16.142Z,43.75
2023-03-16T16:46:43.724Z,44.29
2023-03-16T16:49:30.431Z,43.33
2023-03-16T16:51:57.595Z,44.66
2023-03-16T16:54:26.108Z,44.98
2023-03-16T16:56:54.566Z,44.31
2023-03-16T16:59:28.817Z,45.85
2023-03-16T17:01:56.420Z,45.89
2023-03-16T17:04:25.891Z,45.74
2023-03-16T17:06:55.424Z,45.04
2023-03-16T17:09:23.164Z,45.86
2023-03-16T17:11:50.775Z,44.91
2023-03-16T17:14:19.880Z,45.21
2023-03-16T17:16:48.232Z,45.30
2023-03-16T17:19:20.017Z,46.14
2023-03-16T17:21:46.624Z,46.17
2023-03-16T17:24:13.567Z,46.09
2023-03-16T17:26:45.695Z,46.90
2023-03-16T17:29:32.741Z,48.09
2023-03-16T17:32:04.435Z,47.68
2023-03-16T17:34:33.637Z,47.08
2023-03-16T17:37:01.630Z,46.88
2023-03-16T17:39:30.926Z,47.39
2023-03-16T17:42:03.900Z,47.55
2023-03-16T17:44:37.872Z,48.04
2023-03-16T17:47:13.337Z,48.22
2023-03-16T17:49:40.198Z,48.07
2023-03-16T17:52:26.561Z,48.32
2023-03-16T17:54:54.238Z,48.26
2023-03-16T17:57:38.996Z,48.43
2023-03-16T18:00:18.550Z,48.13
2023-03-16T18:03:13.509Z,48.97
2023-03-16T18:05:41.049Z,49.21
2023-03-16T18:08:22.211Z,49.41
2023-03-16T18:10:53.202Z,48.84
2023-03-16T18:13:27.452Z,49.33
2023-03-16T18:15:55.701Z,49.58
2023-03-16T18:18:26.395Z,49.90
2023-03-16T18:20:54.847Z,50.25
2023-03-16T18:23:24.121Z,50.50
2023-03-16T18:25:52.815Z,49.95
2023-03-16T18:28:19.512Z,49.77
2023-03-16T18:30:48.917Z,49.80
2023-03-16T18:33:30.435Z,49.72
2023-03-16T18:36:03.076Z,50.22
2023-03-16T18:38:32.719Z,49.83
2023-03-16T18:41:01.926Z,50.24
2023-03-16T18:43:29.110Z,50.33
2023-03-16T18:45:56.728Z,50.54
2023-03-16T18:48:29.644Z,50.58
2023-03-16T18:50:56.365Z,50.99
2023-03-16T18:53:22.846Z,50.29
2023-03-16T18:55:50.225Z,50.87
2023-03-16T18:58:23.787Z,51.25
2023-03-16T19:01:01.287Z,51.20
2023-03-16T19:03:34.505Z,50.57
2023-03-16T19:06:01.833Z,50.63
2023-03-16T19:08:29.259Z,50.83
2023-03-16T19:11:01.304Z,50.58
2023-03-16T19:13:28.303Z,50.86
2023-03-16T19:15:57.472Z,51.27
2023-03-16T19:18:25.975Z,51.55
2023-03-16T19:20:53.735Z,51.14
2023-03-16T19:23:32.437Z,50.97
2023-03-16T19:25:59.018Z,50.93
2023-03-16T19:28:29.036Z,50.74
2023-03-16T19:30:56.868Z,50.88
2023-03-16T19:33:26.174Z,50.40
2023-03-16T19:35:54.258Z,50.83
2023-03-16T19:38:22.083Z,50.70
2023-03-16T19:40:57.123Z,50.64
2023-03-16T19:43:25.147Z,50.69
2023-03-16T19:45:52.189Z,50.73
2023-03-16T19:48:31.047Z,50.76
2023-03-16T19:50:57.421Z,51.05
2023-03-16T19:53:25.404Z,50.87
2023-03-16T19:55:53.262Z,50.74
2023-03-16T19:58:29.211Z,50.26
2023-03-16T20:00:56.499Z,50.54
2023-03-16T20:03:22.887Z,50.33
2023-03-16T20:05:49.270Z,50.77
2023-03-16T20:08:24.986Z,50.64
2023-03-16T20:10:52.689Z,50.94
2023-03-16T20:13:19.416Z,50.74
2023-03-16T20:15:46.473Z,50.56
2023-03-16T20:18:15.150Z,50.84
2023-03-16T20:20:43.024Z,51.37
2023-03-16T20:23:18.602Z,51.18
2023-03-16T20:25:46.122Z,51.58
2023-03-16T20:28:22.293Z,51.43
2023-03-16T20:30:49.046Z,51.41
2023-03-16T20:33:24.494Z,51.49
2023-03-16T20:35:53.365Z,51.85
2023-03-16T20:38:20.012Z,51.82
2023-03-16T20:40:50.164Z,51.26
2023-03-16T20:43:23.957Z,50.99
2023-03-16T20:45:52.699Z,51.41
2023-03-16T20:48:19.074Z,50.71
2023-03-16T20:50:45.638Z,51.12
2023-03-16T20:53:12.256Z,52.17
2023-03-16T20:55:39.492Z,52.04
2023-03-16T20:58:18.022Z,52.02
2023-03-16T21:00:45.500Z,51.41
2023-03-16T21:03:20.589Z,52.45
2023-03-16T21:05:47.218Z,52.07
2023-03-16T21:08:15.170Z,52.69
2023-03-16T21:10:44.571Z,52.07
2023-03-16T21:13:20.583Z,52.68
2023-03-16T21:15:49.836Z,52.56
2023-03-16T21:18:21.435Z,51.99
2023-03-16T21:20:49.518Z,52.69
2023-03-16T21:23:18.956Z,52.52
2023-03-16T21:25:51.470Z,52.81
2023-03-16T21:28:19.249Z,52.71
2023-03-16T21:30:51.296Z,52.60
2023-03-16T21:33:31.567Z,52.70
2023-03-16T21:36:00.148Z,52.26
2023-03-16T21:38:28.464Z,52.37
2023-03-16T21:40:55.107Z,52.45
2023-03-16T21:43:22.142Z,52.09
2023-03-16T21:45:50.549Z,51.61
2023-03-16T21:48:23.278Z,52.10
2023-03-16T21:50:50.788Z,52.49
2023-03-16T21:53:23.570Z,52.34
2023-03-16T21:55:51.511Z,52.80
2023-03-16T21:58:18.706Z,53.01
2023-03-16T22:00:46.616Z,53.43
2023-03-16T22:03:47.759Z,52.61
2023-03-16T22:06:15.965Z,52.66
2023-03-16T22:08:42.636Z,52.59
2023-03-16T22:11:16.611Z,53.41
2023-03-16T22:13:42.976Z,52.98
2023-03-16T22:16:15.807Z,53.67
2023-03-16T22:18:43.244Z,53.13
2023-03-16T22:21:34.811Z,52.72
2023-03-16T22:24:02.299Z,53.28
2023-03-16T22:26:29.523Z,53.20
2023-03-16T22:28:56.428Z,53.50
2023-03-16T22:31:35.071Z,53.35
2023-03-16T22:34:04.223Z,53.34
2023-03-16T22:36:32.160Z,54.07
2023-03-16T22:39:05.551Z,53.51
2023-03-16T22:41:32.192Z,54.04
2023-03-16T22:43:59.454Z,53.64
2023-03-16T22:46:27.791Z,53.87
2023-03-16T22:48:55.513Z,53.77
2023-03-16T22:51:27.959Z,54.48
2023-03-16T22:54:01.848Z,54.69
2023-03-16T22:56:29.258Z,54.20
2023-03-16T22:58:58.962Z,54.41
2023-03-16T23:01:47.488Z,54.49
2023-03-16T23:04:29.743Z,54.84
2023-03-16T23:06:56.462Z,54.27
2023-03-16T23:09:23.046Z,54.46
2023-03-16T23:11:54.011Z,55.01
2023-03-16T23:14:27.506Z,54.64
2023-03-16T23:16:54.037Z,54.79
2023-03-16T23:19:33.793Z,55.07
2023-03-16T23:22:03.343Z,55.29
2023-03-16T23:24:29.805Z,54.95
2023-03-16T23:26:56.673Z,55.61
2023-03-16T23:29:23.553Z,54.99
2023-03-16T23:31:50.423Z,55.29
2023-03-16T23:34:19.626Z,54.99
2023-03-16T23:36:46.405Z,55.13
2023-03-16T23:39:13.024Z,54.58
2023-03-16T23:41:43.005Z,54.97
2023-03-16T23:44:15.683Z,55.64
2023-03-16T23:46:42.066Z,55.73
2023-03-16T23:49:18.058Z,55.95
2023-03-16T23:51:46.117Z,55.73
2023-03-16T23:54:18.305Z,55.80
2023-03-16T23:56:44.899Z,56.28
2023-03-16T23:59:11.530Z,56.45
